Time;durP1;ratioP1;P1;durP2;ratioP2;P2;SDS_P1;SDS_P2;PMS_P1;PMS_P2;Temp;Humidity;BMP_temperature;BMP_pressure;BME280_temperature;BME280_humidity;BME280_pressure;Samples;Min_cycle;Max_cycle;Signal;HPM_P1;HPM_P2
2021/01/07 00:01:30;;;;;;;25.73;12.13;;;1.50;99.90;;;;;;4984869;28;20031;-63
2021/01/07 00:03:55;;;;;;;21.20;11.43;;;1.50;99.90;;;;;;4970780;28;20049;-63
2021/01/07 00:06:21;;;;;;;19.77;12.30;;;1.50;99.90;;;;;;4984089;28;20030;-62
2021/01/07 00:08:47;;;;;;;25.48;11.75;;;1.50;99.90;;;;;;4984344;28;20053;-61
2021/01/07 00:11:12;;;;;;;19.83;11.88;;;1.50;99.90;;;;;;4985761;28;20105;-58
2021/01/07 00:13:38;;;;;;;22.13;10.90;;;1.50;99.90;;;;;;4984753;28;20022;-62
2021/01/07 00:16:04;;;;;;;21.90;11.10;;;1.50;99.90;;;;;;4982335;28;20085;-61
2021/01/07 00:18:30;;;;;;;25.60;12.50;;;1.50;99.90;;;;;;4981886;28;20026;-62
2021/01/07 00:20:56;;;;;;;27.50;13.50;;;1.50;99.90;;;;;;4979217;28;20064;-60
2021/01/07 00:23:22;;;;;;;25.40;12.73;;;1.50;99.90;;;;;;4985104;28;20149;-63
2021/01/07 00:25:50;;;;;;;23.63;11.40;;;1.50;99.90;;;;;;4986124;28;20105;-62
2021/01/07 00:28:16;;;;;;;21.08;11.20;;;1.50;99.90;;;;;;4981513;28;20029;-61
2021/01/07 00:30:43;;;;;;;20.10;11.80;;;1.50;99.90;;;;;;4984132;28;20416;-63
2021/01/07 00:33:10;;;;;;;23.08;12.85;;;1.50;99.90;;;;;;4987032;28;20559;-62
2021/01/07 00:35:36;;;;;;;32.03;13.77;;;1.50;99.90;;;;;;4987230;28;20014;-61
2021/01/07 00:38:03;;;;;;;33.67;14.45;;;1.50;99.90;;;;;;4984985;28;21830;-62
2021/01/07 00:40:29;;;;;;;20.95;10.88;;;1.50;99.90;;;;;;4980885;28;20026;-61
2021/01/07 00:42:55;;;;;;;22.58;11.65;;;1.50;99.90;;;;;;4977268;28;20217;-61
2021/01/07 00:45:21;;;;;;;18.67;10.88;;;1.50;99.90;;;;;;4980296;28;20092;-61
2021/01/07 00:47:46;;;;;;;25.02;11.27;;;1.50;99.90;;;;;;4987586;28;20038;-62
2021/01/07 00:50:13;;;;;;;25.73;12.85;;;1.60;99.90;;;;;;4986394;28;20144;-62
2021/01/07 00:52:40;;;;;;;24.80;13.52;;;1.60;99.90;;;;;;4985543;28;20046;-63
2021/01/07 00:55:07;;;;;;;27.02;12.27;;;1.60;99.90;;;;;;4978409;28;20672;-62
2021/01/07 00:57:33;;;;;;;26.38;12.27;;;1.60;99.90;;;;;;4982392;28;20494;-63
2021/01/07 00:59:58;;;;;;;28.42;12.23;;;1.60;99.90;;;;;;4981442;28;20108;-63
2021/01/07 01:02:24;;;;;;;25.95;11.95;;;1.60;99.90;;;;;;4985765;28;20038;-60
2021/01/07 01:04:49;;;;;;;27.55;11.90;;;1.50;99.90;;;;;;4968680;28;20510;-62
2021/01/07 01:07:15;;;;;;;25.42;11.95;;;1.60;99.90;;;;;;4984526;28;20022;-63
2021/01/07 01:09:41;;;;;;;26.52;11.20;;;1.60;99.90;;;;;;4981290;28;20034;-59
2021/01/07 01:12:06;;;;;;;20.95;10.75;;;1.50;99.90;;;;;;4979366;28;20030;-62
2021/01/07 01:14:32;;;;;;;22.73;11.00;;;1.60;99.90;;;;;;4978367;28;20026;-61
2021/01/07 01:16:57;;;;;;;21.55;12.18;;;1.50;99.90;;;;;;4978009;28;20031;-62
2021/01/07 01:19:23;;;;;;;24.85;11.40;;;1.50;99.90;;;;;;4980831;28;20034;-59
2021/01/07 01:21:52;;;;;;;29.25;11.30;;;1.50;99.90;;;;;;4986220;28;20030;-56
2021/01/07 01:24:18;;;;;;;26.67;11.23;;;1.60;99.90;;;;;;4981163;28;20023;-61
2021/01/07 01:26:44;;;;;;;21.52;11.15;;;1.60;99.90;;;;;;4982905;28;20050;-61
2021/01/07 01:29:09;;;;;;;28.50;12.98;;;1.60;99.90;;;;;;4983109;28;20080;-62
2021/01/07 01:31:44;;;;;;;18.20;10.32;;;1.60;99.90;;;;;;4974801;28;20561;-62
2021/01/07 01:34:10;;;;;;;21.60;9.60;;;1.60;99.90;;;;;;4980785;28;20022;-59
2021/01/07 01:36:35;;;;;;;21.20;11.63;;;1.50;99.90;;;;;;4982746;28;20045;-61
2021/01/07 01:39:01;;;;;;;30.70;12.05;;;1.60;99.90;;;;;;4982975;28;20034;-64
2021/01/07 01:41:26;;;;;;;22.85;10.90;;;1.60;99.90;;;;;;4981229;28;20030;-62
2021/01/07 01:43:52;;;;;;;20.67;10.13;;;1.60;99.90;;;;;;4980515;28;20027;-59
2021/01/07 01:46:18;;;;;;;23.83;12.23;;;1.60;99.90;;;;;;4986113;28;20030;-60
2021/01/07 01:48:43;;;;;;;23.25;10.98;;;1.60;99.90;;;;;;4986439;28;20033;-62
2021/01/07 01:51:09;;;;;;;21.50;10.88;;;1.60;99.90;;;;;;4986264;28;20034;-59
2021/01/07 01:53:38;;;;;;;22.13;11.13;;;1.60;99.90;;;;;;4986828;28;20037;-59
2021/01/07 01:56:05;;;;;;;22.05;11.25;;;1.60;99.90;;;;;;4979205;28;20037;-61
2021/01/07 01:58:34;;;;;;;19.42;11.00;;;1.60;99.90;;;;;;4983726;28;20034;-61
2021/01/07 02:00:59;;;;;;;25.35;10.48;;;1.60;99.90;;;;;;4985196;28;20065;-62
2021/01/07 02:03:25;;;;;;;24.02;12.45;;;1.60;99.90;;;;;;4979509;28;20046;-62
2021/01/07 02:05:51;;;;;;;27.52;12.25;;;1.60;99.90;;;;;;4966432;28;20042;-63
2021/01/07 02:08:18;;;;;;;21.05;12.68;;;1.60;99.90;;;;;;4982023;28;20116;-62
2021/01/07 02:10:44;;;;;;;24.48;11.75;;;1.60;99.90;;;;;;4989787;28;20077;-60
2021/01/07 02:13:09;;;;;;;20.75;11.63;;;1.60;99.90;;;;;;4988722;28;20026;-61
2021/01/07 02:15:41;;;;;;;21.35;12.23;;;1.70;99.90;;;;;;4985252;28;20033;-60
2021/01/07 02:18:10;;;;;;;31.00;13.38;;;1.60;99.90;;;;;;4989525;28;20122;-63
2021/01/07 02:20:37;;;;;;;27.77;14.50;;;1.70;99.90;;;;;;4989573;28;20058;-64
2021/01/07 02:23:04;;;;;;;30.13;16.90;;;1.60;99.90;;;;;;4987809;28;20582;-61
2021/01/07 02:25:29;;;;;;;36.92;18.15;;;1.60;99.90;;;;;;4988931;28;20027;-60
2021/01/07 02:27:55;;;;;;;40.55;20.67;;;1.50;99.90;;;;;;4988013;28;20025;-61
2021/01/07 02:30:21;;;;;;;38.22;19.00;;;1.50;99.90;;;;;;4986544;28;20057;-61
2021/01/07 02:32:47;;;;;;;40.40;19.77;;;1.50;99.90;;;;;;4989227;28;20121;-61
2021/01/07 02:35:13;;;;;;;34.28;18.58;;;1.50;99.90;;;;;;4979743;28;20120;-63
2021/01/07 02:37:41;;;;;;;33.63;18.42;;;1.50;99.90;;;;;;4988820;28;20547;-62
2021/01/07 02:40:07;;;;;;;36.45;18.30;;;1.60;99.90;;;;;;4984067;28;20030;-62
2021/01/07 02:42:33;;;;;;;39.33;19.42;;;1.60;99.90;;;;;;4990010;28;20023;-61
2021/01/07 02:44:59;;;;;;;40.92;20.17;;;1.60;99.90;;;;;;4986359;28;20031;-63
2021/01/07 02:47:25;;;;;;;36.80;19.20;;;1.50;99.90;;;;;;4979586;28;20031;-60
2021/01/07 02:49:50;;;;;;;41.80;19.63;;;1.50;99.90;;;;;;4985456;28;20084;-63
2021/01/07 02:52:16;;;;;;;40.25;19.75;;;1.60;99.90;;;;;;4989249;28;20161;-61
2021/01/07 02:54:41;;;;;;;33.38;19.02;;;1.60;99.90;;;;;;4988289;28;20522;-62
2021/01/07 02:57:07;;;;;;;38.88;20.48;;;1.50;99.90;;;;;;4982467;28;20033;-59
2021/01/07 02:59:33;;;;;;;38.15;19.85;;;1.60;99.90;;;;;;4989367;28;20026;-63
2021/01/07 03:01:58;;;;;;;37.50;20.08;;;1.50;99.90;;;;;;4993189;28;20117;-61
2021/01/07 03:04:24;;;;;;;38.50;20.35;;;1.50;99.90;;;;;;4972161;28;20691;-61
2021/01/07 03:06:49;;;;;;;41.13;20.25;;;1.50;99.90;;;;;;4982488;28;20133;-60
2021/01/07 03:09:15;;;;;;;37.08;19.27;;;1.50;99.90;;;;;;4979018;28;20030;-61
2021/01/07 03:11:41;;;;;;;40.03;20.63;;;1.50;99.90;;;;;;4987990;28;20060;-60
2021/01/07 03:14:06;;;;;;;45.10;19.88;;;1.50;99.90;;;;;;4988572;28;20027;-63
2021/01/07 03:16:32;;;;;;;40.55;19.52;;;1.50;99.90;;;;;;4979720;28;20023;-62
2021/01/07 03:18:57;;;;;;;42.88;20.55;;;1.50;99.90;;;;;;4989368;28;20030;-61
2021/01/07 03:21:23;;;;;;;41.55;20.65;;;1.50;99.90;;;;;;4979698;28;20064;-63
2021/01/07 03:23:49;;;;;;;44.30;20.05;;;1.50;99.90;;;;;;4988574;28;20599;-59
2021/01/07 03:26:15;;;;;;;42.78;20.65;;;1.50;99.90;;;;;;4944521;28;20388;-63
2021/01/07 03:28:40;;;;;;;42.40;21.10;;;1.50;99.90;;;;;;4988806;28;20565;-61
2021/01/07 03:31:06;;;;;;;36.25;19.40;;;1.60;99.90;;;;;;4988342;28;20113;-62
2021/01/07 03:33:31;;;;;;;43.50;20.50;;;1.50;99.90;;;;;;4989722;28;20484;-60
2021/01/07 03:35:57;;;;;;;43.63;18.83;;;1.50;99.90;;;;;;4988111;28;20589;-64
2021/01/07 03:38:22;;;;;;;39.28;18.95;;;1.50;99.90;;;;;;4988824;28;20113;-59
2021/01/07 03:40:48;;;;;;;40.63;20.58;;;1.50;99.90;;;;;;4985066;28;20109;-61
2021/01/07 03:43:13;;;;;;;37.20;20.25;;;1.60;99.90;;;;;;4987663;28;20397;-61
2021/01/07 03:45:39;;;;;;;47.75;20.65;;;1.60;99.90;;;;;;4988126;28;20484;-59
2021/01/07 03:48:05;;;;;;;39.95;19.88;;;1.60;99.90;;;;;;4988286;28;20046;-61
2021/01/07 03:50:31;;;;;;;37.13;19.45;;;1.60;99.90;;;;;;4981769;28;20153;-61
2021/01/07 03:52:56;;;;;;;40.30;20.27;;;1.60;99.90;;;;;;4987665;28;20117;-59
2021/01/07 03:55:22;;;;;;;42.10;22.02;;;1.60;99.90;;;;;;4987656;28;20053;-60
2021/01/07 03:57:47;;;;;;;39.22;19.27;;;1.60;99.90;;;;;;4986433;28;20022;-58
2021/01/07 04:00:13;;;;;;;40.42;19.20;;;1.60;99.90;;;;;;4985888;28;20033;-60
2021/01/07 04:02:39;;;;;;;42.05;20.52;;;1.60;99.90;;;;;;4988572;28;20023;-61
2021/01/07 04:05:05;;;;;;;39.25;18.85;;;1.60;99.90;;;;;;4958138;28;20054;-59
2021/01/07 04:07:31;;;;;;;34.58;19.88;;;1.60;99.90;;;;;;4988431;28;20088;-60
2021/01/07 04:09:56;;;;;;;37.50;20.65;;;1.60;99.90;;;;;;4978226;28;20492;-59
2021/01/07 04:12:22;;;;;;;39.75;21.20;;;1.60;99.90;;;;;;4988724;28;20049;-60
2021/01/07 04:14:47;;;;;;;36.28;19.77;;;1.70;99.90;;;;;;4987412;28;20563;-62
2021/01/07 04:17:13;;;;;;;34.83;18.38;;;1.70;99.90;;;;;;4986882;28;20117;-60
2021/01/07 04:19:40;;;;;;;37.60;20.38;;;1.70;99.90;;;;;;4984143;28;20138;-61
2021/01/07 04:22:06;;;;;;;42.72;19.85;;;1.70;99.90;;;;;;4983788;28;20022;-63
2021/01/07 04:24:32;;;;;;;42.78;21.67;;;1.70;99.90;;;;;;4987109;28;20041;-61
2021/01/07 04:26:57;;;;;;;42.03;21.90;;;1.70;99.90;;;;;;4988254;28;20062;-62
2021/01/07 04:29:23;;;;;;;39.65;20.45;;;1.70;99.90;;;;;;4984472;28;20065;-62
2021/01/07 04:31:48;;;;;;;39.20;19.30;;;1.70;99.90;;;;;;4980224;28;20126;-58
2021/01/07 04:34:14;;;;;;;38.00;20.08;;;1.70;99.90;;;;;;4981182;28;20034;-61
2021/01/07 04:36:39;;;;;;;39.05;19.25;;;1.70;99.90;;;;;;4984232;28;20034;-61
2021/01/07 04:39:05;;;;;;;37.72;19.10;;;1.70;99.90;;;;;;4980535;28;20019;-60
2021/01/07 04:41:30;;;;;;;41.30;19.73;;;1.70;99.90;;;;;;4985570;28;20026;-61
2021/01/07 04:44:00;;;;;;;38.20;19.48;;;1.70;99.90;;;;;;4986117;28;20125;-62
2021/01/07 04:46:26;;;;;;;39.97;19.83;;;1.70;99.90;;;;;;4980525;28;20110;-62
2021/01/07 04:48:52;;;;;;;39.60;18.77;;;1.70;99.90;;;;;;4982596;28;20050;-60
2021/01/07 04:51:17;;;;;;;39.85;21.20;;;1.60;99.90;;;;;;4986485;28;20038;-60
2021/01/07 04:53:43;;;;;;;38.72;19.58;;;1.70;99.90;;;;;;4986484;28;20034;-60
2021/01/07 04:56:10;;;;;;;42.75;20.52;;;1.60;99.90;;;;;;4985896;28;20027;-63
2021/01/07 04:58:36;;;;;;;43.30;19.50;;;1.70;99.90;;;;;;4987580;28;20036;-60
2021/01/07 05:01:02;;;;;;;41.95;18.92;;;1.60;99.90;;;;;;4986909;28;20415;-62
2021/01/07 05:03:34;;;;;;;39.03;19.20;;;1.70;99.90;;;;;;4982161;28;20034;-61
2021/01/07 05:06:00;;;;;;;43.70;20.10;;;1.60;99.90;;;;;;4971854;28;20712;-63
2021/01/07 05:08:26;;;;;;;39.17;19.67;;;1.70;99.90;;;;;;4980004;28;20019;-64
2021/01/07 05:10:52;;;;;;;41.63;19.77;;;1.70;99.90;;;;;;4987332;28;20041;-61
2021/01/07 05:13:19;;;;;;;42.53;20.15;;;1.70;99.90;;;;;;4986110;28;20102;-61
2021/01/07 05:15:45;;;;;;;33.75;18.30;;;1.70;99.90;;;;;;4978405;28;20489;-62
2021/01/07 05:18:11;;;;;;;48.92;22.10;;;1.70;99.90;;;;;;4980327;28;20044;-62
2021/01/07 05:20:37;;;;;;;34.28;18.70;;;1.70;99.90;;;;;;4985730;28;20037;-62
2021/01/07 05:23:03;;;;;;;38.42;19.80;;;1.70;99.90;;;;;;4981383;28;20022;-62
2021/01/07 05:25:30;;;;;;;41.03;18.33;;;1.70;99.90;;;;;;4984768;28;20060;-63
2021/01/07 05:28:00;;;;;;;39.55;19.08;;;1.70;99.90;;;;;;4984889;28;20026;-60
2021/01/07 05:30:28;;;;;;;41.95;19.80;;;1.70;99.90;;;;;;4998146;28;20110;-60
2021/01/07 05:33:00;;;;;;;38.80;18.35;;;1.70;99.90;;;;;;4980478;28;20031;-60
2021/01/07 05:35:25;;;;;;;42.55;20.60;;;1.70;99.90;;;;;;4982035;28;20399;-62
2021/01/07 05:37:52;;;;;;;34.05;17.77;;;1.70;99.90;;;;;;4984931;28;20034;-63
2021/01/07 05:40:18;;;;;;;36.40;18.63;;;1.70;99.90;;;;;;4979814;28;20445;-60
2021/01/07 05:42:45;;;;;;;34.03;18.42;;;1.60;99.90;;;;;;4984927;28;20058;-60
2021/01/07 05:45:15;;;;;;;41.67;20.42;;;1.60;99.90;;;;;;4986541;28;20094;-59
2021/01/07 05:47:46;;;;;;;35.03;18.05;;;1.60;99.90;;;;;;4984245;28;20022;-61
2021/01/07 05:50:13;;;;;;;42.42;19.75;;;1.60;99.90;;;;;;4980765;28;20138;-61
2021/01/07 05:52:44;;;;;;;36.92;18.02;;;1.60;99.90;;;;;;4984191;28;20139;-61
2021/01/07 05:55:12;;;;;;;42.85;19.05;;;1.50;99.90;;;;;;4979418;28;20038;-61
2021/01/07 05:57:38;;;;;;;35.15;17.70;;;1.50;99.90;;;;;;4984669;28;20084;-59
2021/01/07 06:00:11;;;;;;;38.47;19.83;;;1.40;99.90;;;;;;4985173;28;20113;-60
2021/01/07 06:02:39;;;;;;;40.28;18.95;;;1.50;99.90;;;;;;4984348;28;20026;-61
2021/01/07 06:05:13;;;;;;;38.10;19.83;;;1.50;99.90;;;;;;4966246;28;20041;-62
2021/01/07 06:07:39;;;;;;;41.22;18.92;;;1.50;99.90;;;;;;4985014;28;20843;-58
2021/01/07 06:10:12;;;;;;;41.00;21.65;;;1.50;99.90;;;;;;4984265;28;20030;-61
2021/01/07 06:12:38;;;;;;;41.55;19.00;;;1.40;99.90;;;;;;4986441;28;20810;-63
2021/01/07 06:15:08;;;;;;;43.13;20.27;;;1.50;99.90;;;;;;4984639;28;20039;-62
2021/01/07 06:17:35;;;;;;;40.80;18.67;;;1.50;99.90;;;;;;4982402;28;20026;-62
2021/01/07 06:20:10;;;;;;;40.13;20.27;;;1.50;99.90;;;;;;4980939;28;20058;-62
2021/01/07 06:22:39;;;;;;;37.75;19.23;;;1.50;99.90;;;;;;4983915;28;20113;-62
2021/01/07 06:25:10;;;;;;;45.13;19.75;;;1.50;99.90;;;;;;4985898;28;20069;-62
2021/01/07 06:27:40;;;;;;;43.03;19.88;;;1.40;99.90;;;;;;4980922;28;20652;-62
2021/01/07 06:30:05;;;;;;;43.40;19.58;;;1.50;99.90;;;;;;4986317;28;20488;-60
2021/01/07 06:32:31;;;;;;;43.20;21.13;;;1.50;99.90;;;;;;4984484;28;20041;-63
2021/01/07 06:34:58;;;;;;;85.78;41.28;;;1.50;99.90;;;;;;4973877;28;20031;-60
2021/01/07 06:37:30;;;;;;;55.97;25.77;;;1.50;99.90;;;;;;4984641;28;20026;-62
2021/01/07 06:39:58;;;;;;;67.00;32.83;;;1.50;99.90;;;;;;4987999;28;20085;-62
2021/01/07 06:42:23;;;;;;;47.63;23.08;;;1.50;99.90;;;;;;4985523;28;20118;-62
2021/01/07 06:44:51;;;;;;;57.20;27.92;;;1.40;99.90;;;;;;4985990;28;20097;-60
2021/01/07 06:47:20;;;;;;;90.00;43.63;;;1.40;99.90;;;;;;4985868;28;20041;-62
2021/01/07 06:49:48;;;;;;;68.63;34.53;;;1.40;99.90;;;;;;4975533;28;20165;-62
2021/01/07 06:52:14;;;;;;;63.95;33.72;;;1.40;99.90;;;;;;4982480;28;20030;-62
2021/01/07 06:54:45;;;;;;;42.65;21.80;;;1.40;99.90;;;;;;4987138;28;20085;-61
2021/01/07 06:57:13;;;;;;;50.05;23.15;;;1.50;99.90;;;;;;4997504;28;20053;-62
2021/01/07 06:59:57;;;;;;;51.28;25.08;;;1.40;99.90;;;;;;4988947;28;20025;-62
2021/01/07 07:02:23;;;;;;;51.15;24.27;;;1.50;99.90;;;;;;4984499;28;20042;-62
2021/01/07 07:04:59;;;;;;;49.03;22.80;;;1.50;99.90;;;;;;4979887;28;20404;-63
2021/01/07 07:07:39;;;;;;;53.05;21.13;;;1.50;99.90;;;;;;4983264;28;20046;-61
2021/01/07 07:10:22;;;;;;;42.58;20.27;;;1.50;99.90;;;;;;4987873;28;20113;-61
2021/01/07 07:12:52;;;;;;;49.05;22.77;;;1.40;99.90;;;;;;4982486;28;20062;-63
2021/01/07 07:15:25;;;;;;;46.08;22.10;;;1.50;99.90;;;;;;4981889;28;20030;-62
2021/01/07 07:17:57;;;;;;;52.17;23.73;;;1.50;99.90;;;;;;4984150;28;20053;-61
2021/01/07 07:20:24;;;;;;;42.42;22.13;;;1.50;99.90;;;;;;4988937;28;20053;-61
2021/01/07 07:22:53;;;;;;;46.47;23.77;;;1.50;99.90;;;;;;4988571;28;20023;-59
2021/01/07 07:25:24;;;;;;;42.75;21.48;;;1.50;99.90;;;;;;4988233;28;20439;-63
2021/01/07 07:27:56;;;;;;;48.40;24.42;;;1.50;99.90;;;;;;4988133;28;20134;-60
2021/01/07 07:30:26;;;;;;;46.78;22.77;;;1.50;99.90;;;;;;4988271;28;20033;-60
2021/01/07 07:32:53;;;;;;;43.83;22.60;;;1.50;99.90;;;;;;4980279;28;20039;-63
2021/01/07 07:35:28;;;;;;;59.30;25.42;;;1.50;99.90;;;;;;4986581;28;20085;-61
2021/01/07 07:37:54;;;;;;;55.50;26.65;;;1.50;99.90;;;;;;4988690;28;20031;-59
2021/01/07 07:40:31;;;;;;;51.13;24.08;;;1.60;99.90;;;;;;4986439;28;20149;-62
2021/01/07 07:42:58;;;;;;;60.22;26.60;;;1.50;99.90;;;;;;4987765;28;20023;-60
2021/01/07 07:45:28;;;;;;;51.90;24.17;;;1.60;99.90;;;;;;4987942;28;20025;-61
2021/01/07 07:47:54;;;;;;;47.00;23.52;;;1.60;99.90;;;;;;4981470;28;20010;-60
2021/01/07 07:50:27;;;;;;;52.22;24.38;;;1.60;99.90;;;;;;4981020;28;20029;-61
2021/01/07 07:53:09;;;;;;;48.63;23.48;;;1.60;99.90;;;;;;4987455;28;20033;-60
2021/01/07 07:55:36;;;;;;;50.65;22.85;;;1.60;99.90;;;;;;4984856;28;20034;-61
2021/01/07 07:58:15;;;;;;;55.05;24.85;;;1.50;99.90;;;;;;4987578;28;20014;-60
2021/01/07 08:00:51;;;;;;;45.35;22.30;;;1.60;99.90;;;;;;4985722;28;20046;-61
2021/01/07 08:03:25;;;;;;;60.83;26.58;;;1.60;99.90;;;;;;4975678;28;20497;-59
2021/01/07 08:05:51;;;;;;;;;;;1.60;99.90;;;;;;4967978;28;20145;-58
2021/01/07 08:08:28;;;;;;;55.42;23.38;;;1.60;99.90;;;;;;4986693;28;20401;-60
2021/01/07 08:10:57;;;;;;;54.13;24.88;;;1.60;99.90;;;;;;4987304;28;20026;-63
2021/01/07 08:13:25;;;;;;;59.65;27.98;;;1.60;99.90;;;;;;4984964;28;20019;-60
2021/01/07 08:15:52;;;;;;;151.93;65.55;;;1.60;99.90;;;;;;4983178;28;20026;-61
2021/01/07 08:18:29;;;;;;;72.82;33.97;;;1.50;99.90;;;;;;4985167;28;20092;-63
2021/01/07 08:21:06;;;;;;;100.25;46.83;;;1.50;99.90;;;;;;4985496;28;20030;-60
2021/01/07 08:23:32;;;;;;;66.82;29.13;;;1.50;99.90;;;;;;4984772;28;20037;-62
2021/01/07 08:26:01;;;;;;;61.70;27.98;;;1.50;99.90;;;;;;4984080;28;20121;-62
2021/01/07 08:28:45;;;;;;;56.80;25.85;;;1.50;99.90;;;;;;4986425;28;20022;-62
2021/01/07 08:31:18;;;;;;;60.85;27.75;;;1.50;99.90;;;;;;4981220;28;20022;-60
2021/01/07 08:33:45;;;;;;;62.70;27.88;;;1.50;99.90;;;;;;4989388;28;20026;-63
2021/01/07 08:36:13;;;;;;;64.43;28.75;;;1.50;99.90;;;;;;4991405;28;20033;-62
2021/01/07 08:38:40;;;;;;;64.60;28.08;;;1.60;99.90;;;;;;4987936;28;20391;-60
2021/01/07 08:41:20;;;;;;;63.97;28.65;;;1.50;99.90;;;;;;4982263;28;20030;-62
2021/01/07 08:43:48;;;;;;;72.47;30.67;;;1.50;99.90;;;;;;4987661;28;20073;-58
2021/01/07 08:46:19;;;;;;;69.15;30.65;;;1.50;99.90;;;;;;4986224;28;20253;-61
2021/01/07 08:48:56;;;;;;;66.22;30.65;;;1.50;99.90;;;;;;4986421;28;20620;-61
2021/01/07 08:51:22;;;;;;;71.00;31.40;;;1.50;99.90;;;;;;4980664;28;20077;-61
2021/01/07 08:53:49;;;;;;;71.72;34.35;;;1.50;99.90;;;;;;4982902;28;20038;-60
2021/01/07 08:56:31;;;;;;;74.93;32.35;;;1.50;99.90;;;;;;4985901;28;20057;-62
2021/01/07 08:59:22;;;;;;;75.20;34.65;;;1.50;99.90;;;;;;4986445;28;20034;-59
2021/01/07 09:02:11;;;;;;;87.03;39.35;;;1.50;99.90;;;;;;4985971;28;20037;-63
2021/01/07 09:04:43;;;;;;;79.93;35.85;;;1.50;99.90;;;;;;4985539;28;20519;-58
2021/01/07 09:07:15;;;;;;;76.70;34.47;;;1.60;99.90;;;;;;4965815;28;20178;-62
2021/01/07 09:09:50;;;;;;;85.00;35.50;;;1.60;99.90;;;;;;4986470;28;20045;-62
2021/01/07 09:12:23;;;;;;;80.10;32.13;;;1.60;99.90;;;;;;4985632;28;20018;-62
2021/01/07 09:14:51;;;;;;;58.13;27.08;;;1.50;99.90;;;;;;4986333;28;20030;-62
2021/01/07 09:17:18;;;;;;;55.72;27.33;;;1.60;99.90;;;;;;4986524;28;20033;-63
2021/01/07 09:19:44;;;;;;;72.43;32.10;;;1.60;99.90;;;;;;4986273;28;20396;-60
2021/01/07 09:22:16;;;;;;;77.65;32.35;;;1.60;99.90;;;;;;4985488;28;20053;-60
2021/01/07 09:24:42;;;;;;;73.70;32.22;;;1.60;99.90;;;;;;4977087;28;20542;-61
2021/01/07 09:27:13;;;;;;;133.23;53.67;;;1.60;99.90;;;;;;4986463;28;20022;-62
2021/01/07 09:29:39;;;;;;;106.68;45.35;;;1.60;99.90;;;;;;4986971;28;20022;-61
2021/01/07 09:32:06;;;;;;;73.47;35.15;;;1.50;99.90;;;;;;4980965;28;20492;-60
2021/01/07 09:34:32;;;;;;;81.07;34.55;;;1.50;99.90;;;;;;4981213;28;20030;-62
2021/01/07 09:37:07;;;;;;;52.17;25.90;;;1.50;99.90;;;;;;4985815;28;20045;-61
2021/01/07 09:39:33;;;;;;;;;;;1.50;99.90;;;;;;4983515;28;20034;-62
2021/01/07 09:41:58;;;;;;;57.17;25.60;;;1.50;99.90;;;;;;4983375;28;20285;-61
2021/01/07 09:44:24;;;;;;;76.00;33.97;;;1.50;99.90;;;;;;4985100;28;20044;-61
2021/01/07 09:46:54;;;;;;;94.15;41.90;;;1.50;99.90;;;;;;4985600;28;20036;-61
2021/01/07 09:49:20;;;;;;;98.80;44.25;;;1.50;99.90;;;;;;4983606;28;20053;-60
2021/01/07 09:51:46;;;;;;;91.25;40.08;;;1.40;99.90;;;;;;4986629;28;20065;-59
2021/01/07 09:54:12;;;;;;;65.75;28.20;;;1.40;99.90;;;;;;4985093;28;20046;-60
2021/01/07 09:56:37;;;;;;;74.68;33.28;;;1.40;99.90;;;;;;4982322;28;20445;-60
2021/01/07 09:59:03;;;;;;;67.07;30.25;;;1.40;99.90;;;;;;4985616;28;20038;-60
2021/01/07 10:01:28;;;;;;;63.53;28.05;;;1.40;99.90;;;;;;4982206;28;20611;-62
2021/01/07 10:03:54;;;;;;;79.22;34.08;;;1.40;99.90;;;;;;4985164;28;20033;-60
2021/01/07 10:06:19;;;;;;;75.25;33.30;;;1.50;99.90;;;;;;4965963;28;20031;-59
2021/01/07 10:08:45;;;;;;;76.95;33.70;;;1.50;99.90;;;;;;4983782;28;20019;-61
2021/01/07 10:11:13;;;;;;;109.95;47.42;;;1.50;99.90;;;;;;4985307;28;20026;-59
2021/01/07 10:13:39;;;;;;;70.03;30.73;;;1.50;99.90;;;;;;4982458;28;20019;-59
2021/01/07 10:16:07;;;;;;;63.33;29.50;;;1.60;99.90;;;;;;4978885;28;20030;-61
2021/01/07 10:18:32;;;;;;;63.40;27.75;;;1.60;99.90;;;;;;4990630;28;20030;-62
2021/01/07 10:20:59;;;;;;;64.55;29.73;;;1.60;99.90;;;;;;4983892;28;20064;-59
2021/01/07 10:23:29;;;;;;;66.00;30.25;;;1.60;99.90;;;;;;4986330;28;20041;-61
2021/01/07 10:25:56;;;;;;;118.47;46.78;;;1.60;99.90;;;;;;4984791;28;20023;-61
2021/01/07 10:28:26;;;;;;;209.65;76.53;;;1.60;99.90;;;;;;4989595;28;20068;-62
2021/01/07 10:30:51;;;;;;;86.20;38.00;;;1.70;99.90;;;;;;4987883;28;20121;-63
2021/01/07 10:33:18;;;;;;;68.75;30.08;;;1.70;99.90;;;;;;4990015;28;20516;-62
2021/01/07 10:35:43;;;;;;;76.47;34.45;;;1.70;99.90;;;;;;4980163;28;20054;-59
2021/01/07 10:38:11;;;;;;;74.15;34.80;;;1.80;99.90;;;;;;4989391;28;20105;-60
2021/01/07 10:40:43;;;;;;;66.47;30.10;;;1.80;99.90;;;;;;4985714;28;20684;-63
2021/01/07 10:43:09;;;;;;;110.78;49.65;;;1.80;99.90;;;;;;4981227;28;20520;-62
2021/01/07 10:45:35;;;;;;;73.45;32.97;;;1.80;99.90;;;;;;4984199;28;20030;-61
2021/01/07 10:48:07;;;;;;;67.25;31.48;;;1.80;99.90;;;;;;4986831;28;21195;-62
2021/01/07 10:50:36;;;;;;;56.90;26.13;;;1.90;99.90;;;;;;4989717;28;20038;-63
2021/01/07 10:53:10;;;;;;;53.20;24.35;;;1.90;99.90;;;;;;4984899;28;20116;-63
2021/01/07 10:55:45;;;;;;;56.88;26.55;;;2.00;99.90;;;;;;4985716;28;20026;-60
2021/01/07 10:58:19;;;;;;;64.57;30.50;;;2.00;99.90;;;;;;4985732;28;20031;-61
2021/01/07 11:00:53;;;;;;;;;;;2.10;99.90;;;;;;4985973;28;20534;-62
2021/01/07 11:03:55;;;;;;;45.33;23.33;;;2.10;99.90;;;;;;4983972;28;20427;-62
2021/01/07 11:06:25;;;;;;;45.25;23.27;;;2.10;99.90;;;;;;4971255;28;20030;-62
2021/01/07 11:09:02;;;;;;;33.50;16.00;;;2.10;99.90;;;;;;4980328;28;20035;-59
2021/01/07 11:12:02;;;;;;;31.23;17.08;;;2.00;99.90;;;;;;4989309;28;20022;-62
2021/01/07 11:14:44;;;;;;;38.38;16.70;;;1.90;99.90;;;;;;4971274;28;20076;-62
2021/01/07 11:17:23;;;;;;;36.83;17.27;;;2.00;99.90;;;;;;4980831;28;20026;-62
2021/01/07 11:19:50;;;;;;;33.25;16.30;;;2.00;99.90;;;;;;4978196;28;20049;-62
2021/01/07 11:22:27;;;;;;;31.65;15.60;;;2.00;99.90;;;;;;4984766;28;20091;-59
2021/01/07 11:24:53;;;;;;;30.10;16.27;;;2.00;99.90;;;;;;4988214;28;20097;-63
2021/01/07 11:27:22;;;;;;;32.65;15.20;;;1.90;99.90;;;;;;4981978;28;20027;-62
2021/01/07 11:29:47;;;;;;;31.05;15.70;;;2.00;99.90;;;;;;4982694;28;20581;-62
2021/01/07 11:32:14;;;;;;;34.85;15.60;;;2.00;99.90;;;;;;4988413;28;20026;-61
2021/01/07 11:34:40;;;;;;;44.35;20.30;;;2.00;99.90;;;;;;4987064;28;20555;-62
2021/01/07 11:37:08;;;;;;;31.15;16.85;;;2.10;99.90;;;;;;4985677;28;20106;-60
2021/01/07 11:39:56;;;;;;;38.75;20.20;;;2.00;99.90;;;;;;4987204;28;20108;-62
2021/01/07 11:42:43;;;;;;;28.52;16.85;;;2.00;99.90;;;;;;4982730;28;20037;-62
2021/01/07 11:45:25;;;;;;;31.05;15.80;;;1.90;99.90;;;;;;4986080;28;20121;-60
2021/01/07 11:47:54;;;;;;;28.63;14.48;;;1.90;99.90;;;;;;4988605;28;20060;-59
2021/01/07 11:50:23;;;;;;;35.05;18.15;;;1.90;99.90;;;;;;4985903;28;20037;-60
2021/01/07 11:52:51;;;;;;;67.57;35.47;;;1.80;99.90;;;;;;4957433;28;20030;-65
2021/01/07 11:55:18;;;;;;;52.67;29.20;;;1.80;99.90;;;;;;4987415;28;20041;-54
2021/01/07 11:57:46;;;;;;;49.75;28.67;;;1.90;99.90;;;;;;4986655;28;20059;-62
2021/01/07 12:00:14;;;;;;;48.10;28.20;;;1.90;99.90;;;;;;4985215;28;20145;-60
2021/01/07 12:02:45;;;;;;;48.60;24.30;;;1.90;99.90;;;;;;4983310;28;20057;-64
2021/01/07 12:05:19;;;;;;;35.55;20.80;;;1.90;99.90;;;;;;4983409;28;20089;-60
2021/01/07 12:08:00;;;;;;;42.03;24.17;;;2.00;99.90;;;;;;4971904;28;20071;-60
2021/01/07 12:10:31;;;;;;;27.70;14.82;;;2.10;99.90;;;;;;4986205;28;20023;-62
2021/01/07 12:13:20;;;;;;;30.95;16.60;;;2.20;99.90;;;;;;4988898;28;20626;-63
2021/01/07 12:15:48;;;;;;;27.38;15.30;;;2.20;99.90;;;;;;4986749;28;20526;-61
2021/01/07 12:18:16;;;;;;;25.95;15.40;;;2.20;99.90;;;;;;4984132;28;20133;-62
2021/01/07 12:20:42;;;;;;;33.30;17.70;;;2.30;99.90;;;;;;4986876;28;20039;-61
2021/01/07 12:23:09;;;;;;;27.50;15.68;;;2.40;99.90;;;;;;4980753;28;20109;-62
2021/01/07 12:25:39;;;;;;;25.58;14.82;;;2.50;99.90;;;;;;4982627;28;20045;-62
2021/01/07 12:28:06;;;;;;;26.63;15.90;;;2.50;99.90;;;;;;4983581;28;20084;-60
2021/01/07 12:30:37;;;;;;;37.30;15.93;;;2.60;99.90;;;;;;4986982;28;20030;-65
2021/01/07 12:33:39;;;;;;;35.05;19.90;;;2.70;99.90;;;;;;4986401;28;20034;-57
2021/01/07 12:36:25;;;;;;;24.85;13.55;;;2.60;99.90;;;;;;4987863;28;20469;-58
2021/01/07 12:39:12;;;;;;;39.70;19.73;;;2.60;99.90;;;;;;4986736;28;20150;-60
2021/01/07 12:41:52;;;;;;;26.75;15.35;;;2.60;99.90;;;;;;4985686;28;20030;-64
2021/01/07 12:44:21;;;;;;;28.35;16.15;;;2.60;99.90;;;;;;4984338;28;20109;-64
2021/01/07 12:46:50;;;;;;;23.35;13.45;;;2.50;99.90;;;;;;4986238;28;20521;-61